Time;durP1;ratioP1;P1;durP2;ratioP2;P2;SDS_P1;SDS_P2;PMS_P1;PMS_P2;Temp;Humidity;BMP_temperature;BMP_pressure;BME280_temperature;BME280_humidity;BME280_pressure;Samples;Min_cycle;Max_cycle;Signal;HPM_P1;HPM_P2
2023/07/31 00:01:04;;;;;;;0.10;0.10;;;;;;;21.74;75.46;100951.31;5030006;28;20013;-70
2023/07/31 00:03:30;;;;;;;0.10;0.10;;;;;;;20.96;77.82;100950.97;5035514;28;20036;-67
2023/07/31 00:05:55;;;;;;;0.10;0.10;;;;;;;21.44;76.77;100946.31;5023967;28;20490;-68
2023/07/31 00:08:20;;;;;;;0.10;0.10;;;;;;;21.39;77.26;100938.16;5003234;28;20037;-68
2023/07/31 00:10:46;;;;;;;0.10;0.10;;;;;;;21.93;74.28;100938.50;5041307;28;20040;-69
2023/07/31 00:13:11;;;;;;;0.10;0.10;;;;;;;21.71;75.41;100933.59;5003057;28;20034;-68
2023/07/31 00:15:36;;;;;;;0.10;0.10;;;;;;;21.40;77.86;100920.66;5020589;28;20038;-68
2023/07/31 00:18:02;;;;;;;0.10;0.10;;;;;;;21.36;76.82;100927.81;5029343;28;20042;-69
2023/07/31 00:20:27;;;;;;;0.13;0.13;;;;;;;21.79;76.18;100926.63;5029022;28;20048;-69
2023/07/31 00:22:53;;;;;;;0.13;0.13;;;;;;;21.59;75.72;100916.00;5029107;28;20516;-71
2023/07/31 00:25:18;;;;;;;0.10;0.10;;;;;;;22.41;73.87;100909.72;5027753;28;20048;-68
2023/07/31 00:27:45;;;;;;;0.10;0.10;;;;;;;22.01;73.57;100913.19;5022834;28;20045;-69
2023/07/31 00:30:11;;;;;;;0.10;0.10;;;;;;;22.06;73.37;100906.78;5015171;28;20026;-68
2023/07/31 00:32:37;;;;;;;0.10;0.10;;;;;;;22.09;74.20;100901.56;5011205;28;20489;-69
2023/07/31 00:35:03;;;;;;;0.10;0.10;;;;;;;21.94;74.86;100901.78;5009332;28;20034;-69
2023/07/31 00:37:28;;;;;;;0.10;0.10;;;;;;;22.61;71.20;100884.72;5009640;28;20037;-69
2023/07/31 00:39:53;;;;;;;0.10;0.10;;;;;;;22.38;72.30;100896.66;5007378;28;20049;-69
2023/07/31 00:42:19;;;;;;;0.10;0.10;;;;;;;22.59;72.07;100888.88;5009900;28;20038;-70
2023/07/31 00:44:45;;;;;;;0.10;0.10;;;;;;;21.62;75.72;100890.81;5012554;28;20434;-69
2023/07/31 00:47:10;;;;;;;0.10;0.10;;;;;;;22.05;74.18;100883.28;5009452;28;20041;-69
2023/07/31 00:49:36;;;;;;;0.13;0.13;;;;;;;22.47;72.44;100878.38;5009526;28;20018;-68
2023/07/31 00:52:02;;;;;;;0.13;0.13;;;;;;;22.28;72.93;100872.19;5010287;28;20044;-69
2023/07/31 00:54:27;;;;;;;0.10;0.10;;;;;;;22.21;74.85;100879.97;5009461;28;20038;-70
2023/07/31 00:56:54;;;;;;;0.10;0.10;;;;;;;22.20;74.16;100880.28;5009125;28;20394;-68
2023/07/31 00:59:20;;;;;;;0.10;0.10;;;;;;;22.73;72.56;100877.91;5009222;28;20026;-69
2023/07/31 01:01:46;;;;;;;0.10;0.10;;;;;;;22.76;71.40;100871.84;5009322;28;20034;-69
2023/07/31 01:04:13;;;;;;;0.00;0.00;;;;;;;22.89;70.97;100877.31;4991852;28;20061;-70
2023/07/31 01:07:09;;;;;;;0.10;0.10;;;;;;;21.90;75.11;100878.06;5009019;28;20501;-68
2023/07/31 01:09:44;;;;;;;0.13;0.13;;;;;;;21.80;76.15;100874.38;5007786;28;20065;-69
2023/07/31 01:12:14;;;;;;;0.10;0.10;;;;;;;22.13;75.94;100875.19;5008257;28;20528;-69
2023/07/31 01:14:39;;;;;;;0.10;0.10;;;;;;;22.45;73.15;100866.09;5009095;28;20026;-69
2023/07/31 01:17:05;;;;;;;0.10;0.10;;;;;;;22.38;74.64;100869.25;5009166;28;20437;-69
2023/07/31 01:19:31;;;;;;;0.15;0.15;;;;;;;22.86;72.09;100864.19;5009170;28;20017;-66
2023/07/31 01:22:30;;;;;;;0.20;0.20;;;;;;;22.06;75.83;100866.56;5011710;28;20057;-68
2023/07/31 01:25:00;;;;;;;0.10;0.10;;;;;;;22.68;73.90;100863.19;5007724;28;20441;-69
2023/07/31 01:27:30;;;;;;;0.05;0.05;;;;;;;22.72;73.38;100854.38;5009003;28;20026;-70
2023/07/31 01:30:03;;;;;;;0.10;0.10;;;;;;;22.85;72.89;100848.91;5009314;28;20084;-68
2023/07/31 01:32:29;;;;;;;0.00;0.00;;;;;;;23.19;71.69;100856.66;5008999;28;20042;-69
2023/07/31 01:34:58;;;;;;;0.10;0.10;;;;;;;22.71;73.65;100850.84;5009123;28;20375;-69
2023/07/31 01:37:30;;;;;;;0.10;0.10;;;;;;;22.89;72.81;100855.38;5009710;28;20061;-70
2023/07/31 01:39:56;;;;;;;0.10;0.10;;;;;;;22.73;74.01;100861.47;4983374;28;20129;-70
2023/07/31 01:42:21;;;;;;;0.10;0.10;;;;;;;21.80;77.85;100854.38;5009333;28;20519;-68
2023/07/31 01:44:46;;;;;;;0.10;0.10;;;;;;;22.17;75.85;100848.81;5009054;28;20046;-70
2023/07/31 01:47:12;;;;;;;0.10;0.10;;;;;;;23.39;71.36;100843.31;5010260;28;20037;-69
2023/07/31 01:49:37;;;;;;;0.10;0.10;;;;;;;22.66;73.85;100853.69;5012734;28;20113;-67
2023/07/31 01:52:03;;;;;;;0.10;0.10;;;;;;;22.13;76.25;100847.03;5013182;28;20026;-68
2023/07/31 01:54:28;;;;;;;0.10;0.10;;;;;;;23.04;73.84;100838.59;5012505;28;20116;-68
2023/07/31 01:56:53;;;;;;;0.10;0.10;;;;;;;23.08;73.04;100827.81;5012716;28;20037;-70
2023/07/31 01:59:19;;;;;;;0.10;0.10;;;;;;;22.73;74.99;100828.59;5012274;28;20044;-69
2023/07/31 02:01:44;;;;;;;0.10;0.10;;;;;;;22.35;77.62;100831.50;5012173;28;20017;-69
2023/07/31 02:04:10;;;;;;;0.10;0.10;;;;;;;22.45;77.60;100834.06;5012532;28;20018;-71
2023/07/31 02:06:35;;;;;;;0.15;0.15;;;;;;;21.96;79.53;100819.38;5012329;28;20437;-69
2023/07/31 02:09:00;;;;;;;0.10;0.10;;;;;;;22.06;79.18;100819.22;5012399;28;20042;-69
2023/07/31 02:11:26;;;;;;;0.10;0.10;;;;;;;22.77;76.84;100818.66;5012170;28;20046;-70
2023/07/31 02:13:51;;;;;;;0.10;0.10;;;;;;;22.78;76.35;100823.03;5013166;28;20038;-69
2023/07/31 02:16:16;;;;;;;0.00;0.00;;;;;;;22.12;78.35;100818.81;5013042;28;20033;-68
2023/07/31 02:18:42;;;;;;;0.10;0.10;;;;;;;22.81;75.23;100811.44;4994818;28;20072;-71
2023/07/31 02:21:07;;;;;;;0.00;0.00;;;;;;;;;;5012790;28;20406;-68
2023/07/31 02:23:32;;;;;;;0.10;0.10;;;;;;;22.51;77.93;100818.31;5012614;28;20030;-69
2023/07/31 02:25:58;;;;;;;0.10;0.10;;;;;;;22.45;79.03;100812.16;5012366;28;20037;-69
2023/07/31 02:28:23;;;;;;;0.10;0.10;;;;;;;22.48;77.64;100803.34;5013527;28;20025;-70
2023/07/31 02:30:50;;;;;;;0.10;0.10;;;;;;;22.35;77.78;100800.56;5012626;28;20370;-69
2023/07/31 02:33:16;;;;;;;0.10;0.10;;;;;;;22.43;78.33;100806.16;5012500;28;20077;-70
2023/07/31 02:35:41;;;;;;;0.10;0.10;;;;;;;22.33;78.94;100800.06;5022152;28;20496;-69
2023/07/31 02:38:07;;;;;;;0.10;0.10;;;;;;;22.42;78.99;100792.78;5032706;28;20025;-70
2023/07/31 02:40:32;;;;;;;0.10;0.10;;;;;;;22.63;77.84;100788.53;5032421;28;20393;-69
2023/07/31 02:42:58;;;;;;;0.10;0.10;;;;;;;22.95;77.25;100784.81;5032617;28;20025;-69
2023/07/31 02:45:23;;;;;;;0.10;0.10;;;;;;;22.63;78.26;100780.31;5010567;28;20052;-71
2023/07/31 02:47:48;;;;;;;0.10;0.10;;;;;;;22.83;76.16;100779.88;5012642;28;20647;-70
2023/07/31 02:50:14;;;;;;;0.00;0.00;;;;;;;22.82;77.99;100780.19;5010474;28;20038;-69
2023/07/31 02:52:39;;;;;;;0.10;0.10;;;;;;;22.41;79.99;100774.72;5012590;28;20385;-67
2023/07/31 02:55:06;;;;;;;0.10;0.10;;;;;;;23.16;76.93;100772.25;5012507;28;20029;-69
2023/07/31 02:57:31;;;;;;;0.10;0.10;;;;;;;23.06;77.87;100776.06;5012103;28;20458;-69
2023/07/31 02:59:56;;;;;;;0.10;0.10;;;;;;;23.00;77.76;100773.72;5011111;28;20049;-70
2023/07/31 03:02:22;;;;;;;0.10;0.10;;;;;;;22.62;78.98;100778.72;5012039;28;20527;-69
2023/07/31 03:04:47;;;;;;;0.10;0.10;;;;;;;22.91;77.50;100775.59;5012179;28;20060;-69
2023/07/31 03:07:12;;;;;;;0.10;0.10;;;;;;;22.21;80.79;100770.47;5012550;28;20022;-68
2023/07/31 03:09:38;;;;;;;0.00;0.00;;;;;;;22.32;81.52;100774.63;5012175;28;20034;-69
2023/07/31 03:12:03;;;;;;;0.10;0.10;;;;;;;22.83;79.54;100776.31;5012251;28;20037;-70
2023/07/31 03:14:29;;;;;;;0.03;0.03;;;;;;;23.06;76.99;100784.28;5011866;28;20096;-69
2023/07/31 03:16:54;;;;;;;0.05;0.05;;;;;;;22.22;80.33;100776.75;5012078;28;20576;-69
2023/07/31 03:19:20;;;;;;;0.10;0.10;;;;;;;21.95;81.54;100769.34;5012301;28;20042;-69
2023/07/31 03:21:45;;;;;;;0.10;0.10;;;;;;;21.94;82.42;100783.31;5011258;28;20409;-69
2023/07/31 03:24:12;;;;;;;0.00;0.00;;;;;;;22.80;79.96;100772.25;5011712;28;20498;-69
2023/07/31 03:26:38;;;;;;;0.10;0.10;;;;;;;22.18;81.71;100781.22;5011568;28;20048;-69
2023/07/31 03:29:03;;;;;;;0.00;0.00;;;;;;;22.24;81.83;100782.72;5011473;28;20038;-69
2023/07/31 03:31:28;;;;;;;0.10;0.10;;;;;;;22.50;80.59;100775.63;5012091;28;20037;-69
2023/07/31 03:33:54;;;;;;;0.10;0.10;;;;;;;22.74;79.59;100789.97;5026194;28;20042;-69
2023/07/31 03:36:19;;;;;;;0.10;0.10;;;;;;;22.25;82.62;100784.38;5030645;28;20029;-69
2023/07/31 03:38:46;;;;;;;0.10;0.10;;;;;;;21.74;84.51;100793.47;5031515;28;20516;-69
2023/07/31 03:41:11;;;;;;;0.10;0.10;;;;;;;21.62;85.06;100784.94;5030997;28;20443;-69
2023/07/31 03:43:36;;;;;;;0.10;0.10;;;;;;;21.84;84.43;100776.09;5031060;28;20025;-68
2023/07/31 03:46:02;;;;;;;0.15;0.15;;;;;;;21.46;87.12;100789.03;5031621;28;20048;-68
2023/07/31 03:48:28;;;;;;;0.10;0.10;;;;;;;21.86;84.55;100793.03;5030955;28;20046;-68
2023/07/31 03:50:53;;;;;;;0.10;0.10;;;;;;;21.78;84.62;100782.72;5012220;28;20034;-69
2023/07/31 03:53:18;;;;;;;0.10;0.10;;;;;;;22.42;82.03;100779.09;5024258;28;20096;-70
2023/07/31 03:55:44;;;;;;;0.10;0.10;;;;;;;21.98;83.52;100763.25;5010913;28;20040;-68
2023/07/31 03:58:09;;;;;;;0.10;0.10;;;;;;;22.11;83.18;100787.06;5011992;28;20022;-70
2023/07/31 04:00:35;;;;;;;0.10;0.10;;;;;;;22.02;83.89;100777.94;5010946;28;20038;-69
2023/07/31 04:03:00;;;;;;;0.10;0.10;;;;;;;21.66;85.43;100775.00;5021091;28;20116;-69
2023/07/31 04:05:25;;;;;;;0.08;0.08;;;;;;;21.66;85.49;100783.22;5030409;28;20571;-68
2023/07/31 04:07:51;;;;;;;0.10;0.10;;;;;;;21.83;86.03;100783.50;5029420;28;20045;-68
2023/07/31 04:10:16;;;;;;;0.10;0.10;;;;;;;22.50;81.75;100760.03;5045424;28;20036;-68
2023/07/31 04:12:42;;;;;;;0.10;0.10;;;;;;;22.51;82.09;100756.16;5049713;28;20555;-69
2023/07/31 04:15:07;;;;;;;0.10;0.10;;;;;;;22.09;83.63;100759.22;5048110;28;20144;-67
2023/07/31 04:17:33;;;;;;;0.10;0.10;;;;;;;22.00;84.69;100769.22;5029197;28;20036;-68
2023/07/31 04:19:58;;;;;;;0.13;0.13;;;;;;;22.28;82.59;100764.59;5030126;28;20149;-69
2023/07/31 04:22:24;;;;;;;0.10;0.10;;;;;;;21.80;83.29;100767.69;5030696;28;20025;-69
2023/07/31 04:24:49;;;;;;;0.10;0.10;;;;;;;22.36;82.53;100766.63;5030191;28;20038;-68
2023/07/31 04:27:14;;;;;;;0.10;0.10;;;;;;;22.45;81.68;100754.63;5029957;28;20036;-69
2023/07/31 04:29:42;;;;;;;0.10;0.10;;;;;;;22.16;83.01;100762.34;5029728;28;20083;-68
2023/07/31 04:32:08;;;;;;;0.00;0.00;;;;;;;22.67;79.43;100752.00;5029824;28;20033;-68
2023/07/31 04:34:33;;;;;;;0.10;0.10;;;;;;;21.96;83.50;100756.44;5029790;28;20051;-69
2023/07/31 04:36:59;;;;;;;0.10;0.10;;;;;;;22.83;79.63;100747.00;5030781;28;20220;-69
2023/07/31 04:39:24;;;;;;;0.10;0.10;;;;;;;22.30;81.59;100748.66;5030008;28;20040;-69
2023/07/31 04:41:49;;;;;;;0.10;0.10;;;;;;;22.11;82.26;100740.53;5030196;28;20041;-68
2023/07/31 04:44:15;;;;;;;0.05;0.05;;;;;;;23.07;78.65;100735.75;5029958;28;20036;-69
2023/07/31 04:46:40;;;;;;;0.10;0.10;;;;;;;22.97;78.47;100744.22;5030288;28;20049;-68
2023/07/31 04:49:06;;;;;;;0.10;0.10;;;;;;;22.24;80.61;100747.16;5030154;28;20029;-70
2023/07/31 04:51:31;;;;;;;0.10;0.10;;;;;;;22.46;79.07;100731.63;5029473;28;20026;-67
2023/07/31 04:53:56;;;;;;;0.10;0.10;;;;;;;22.16;81.98;100740.47;5029906;28;20095;-70
2023/07/31 04:56:22;;;;;;;0.10;0.10;;;;;;;23.17;76.33;100728.09;5029440;28;20485;-69
2023/07/31 04:58:47;;;;;;;0.08;0.08;;;;;;;22.92;78.26;100734.16;5029901;28;20021;-69
2023/07/31 05:01:12;;;;;;;0.10;0.10;;;;;;;22.79;77.72;100726.81;5029974;28;20028;-68
2023/07/31 05:03:38;;;;;;;0.10;0.10;;;;;;;22.98;77.58;100741.16;5029388;28;20037;-69
2023/07/31 05:06:03;;;;;;;0.10;0.10;;;;;;;23.40;75.39;100737.97;5029836;28;20091;-67
2023/07/31 05:08:29;;;;;;;0.08;0.08;;;;;;;22.77;78.45;100736.44;5029372;28;20512;-68
2023/07/31 05:10:54;;;;;;;0.10;0.10;;;;;;;22.45;79.55;100737.38;5029608;28;20169;-69
2023/07/31 05:13:19;;;;;;;0.10;0.10;;;;;;;22.50;79.84;100723.59;5030396;28;20021;-68
2023/07/31 05:15:45;;;;;;;0.10;0.10;;;;;;;22.32;80.31;100728.09;5026488;28;20033;-68
2023/07/31 05:18:10;;;;;;;0.10;0.10;;;;;;;22.68;77.91;100725.44;5028842;28;20044;-67
2023/07/31 05:20:36;;;;;;;0.10;0.10;;;;;;;22.33;80.25;100731.63;5010315;28;20040;-68
2023/07/31 05:23:02;;;;;;;0.10;0.10;;;;;;;22.16;80.87;100732.25;5028315;28;20045;-71
2023/07/31 05:25:27;;;;;;;0.10;0.10;;;;;;;22.26;80.70;100717.53;5029244;28;20029;-69
2023/07/31 05:27:52;;;;;;;0.10;0.10;;;;;;;22.38;79.48;100715.91;5010225;28;20030;-71
2023/07/31 05:30:18;;;;;;;0.10;0.10;;;;;;;22.30;79.80;100715.81;5029272;28;20485;-68
2023/07/31 05:32:44;;;;;;;0.10;0.10;;;;;;;22.26;80.91;100717.53;5028335;28;20057;-70
2023/07/31 05:35:09;;;;;;;0.00;0.00;;;;;;;22.02;80.36;100716.94;5026115;28;20055;-70
2023/07/31 05:37:35;;;;;;;0.10;0.10;;;;;;;22.45;78.93;100705.34;5027975;28;20025;-69
2023/07/31 05:40:00;;;;;;;0.00;0.00;;;;;;;23.28;75.83;100714.94;5029309;28;20072;-70
2023/07/31 05:42:25;;;;;;;0.10;0.10;;;;;;;22.33;78.73;100712.44;5028504;28;20404;-70
2023/07/31 05:44:51;;;;;;;0.10;0.10;;;;;;;22.34;79.35;100714.91;5028752;28;20552;-68
2023/07/31 05:47:16;;;;;;;0.10;0.10;;;;;;;23.49;74.32;100703.16;5028913;28;20049;-69
2023/07/31 05:49:42;;;;;;;0.10;0.10;;;;;;;23.24;74.90;100703.78;5028085;28;20029;-70
2023/07/31 05:52:07;;;;;;;0.10;0.10;;;;;;;23.18;75.08;100705.03;5029415;28;20033;-69
2023/07/31 05:54:33;;;;;;;0.10;0.10;;;;;;;22.38;79.22;100706.88;5028655;28;20498;-71
2023/07/31 05:56:59;;;;;;;0.10;0.10;;;;;;;22.73;77.27;100705.31;5028431;28;20087;-70
2023/07/31 05:59:24;;;;;;;0.00;0.00;;;;;;;22.02;79.60;100709.53;5028556;28;20493;-70
2023/07/31 06:01:49;;;;;;;0.10;0.10;;;;;;;22.68;77.49;100707.03;5028944;28;20029;-69
2023/07/31 06:04:15;;;;;;;0.10;0.10;;;;;;;22.88;76.87;100702.22;5029143;28;20469;-71
2023/07/31 06:06:40;;;;;;;0.00;0.00;;;;;;;22.59;78.09;100691.66;5028486;28;20037;-69
2023/07/31 06:09:05;;;;;;;0.10;0.10;;;;;;;23.09;75.95;100689.66;5028637;28;20037;-69
2023/07/31 06:11:31;;;;;;;0.10;0.10;;;;;;;22.63;77.09;100693.47;5011057;28;20041;-68
2023/07/31 06:13:56;;;;;;;0.08;0.08;;;;;;;22.75;76.80;100687.44;5027674;28;20033;-70
2023/07/31 06:16:22;;;;;;;0.10;0.10;;;;;;;23.14;75.46;100686.78;5029241;28;20107;-69
2023/07/31 06:18:48;;;;;;;0.10;0.10;;;;;;;22.58;77.75;100690.81;5028908;28;20045;-69
2023/07/31 06:21:13;;;;;;;0.03;0.03;;;;;;;23.18;75.70;100680.34;5028498;28;20037;-70
2023/07/31 06:23:39;;;;;;;0.10;0.10;;;;;;;22.75;76.64;100681.16;5028338;28;20064;-70
2023/07/31 06:26:04;;;;;;;0.10;0.10;;;;;;;22.92;76.66;100681.31;5028484;28;20029;-70
2023/07/31 06:28:31;;;;;;;0.10;0.10;;;;;;;22.13;80.53;100686.31;5028902;28;20579;-70
2023/07/31 06:30:58;;;;;;;0.10;0.10;;;;;;;23.21;75.45;100687.16;5027473;28;20050;-70
2023/07/31 06:33:24;;;;;;;0.00;0.00;;;;;;;22.73;76.94;100680.66;5028456;28;20047;-69
2023/07/31 06:35:50;;;;;;;0.00;0.00;;;;;;;22.85;76.20;100691.88;5031196;28;20518;-70
2023/07/31 06:38:15;;;;;;;0.10;0.10;;;;;;;23.31;74.81;100686.94;5031806;28;20091;-70
2023/07/31 06:40:40;;;;;;;0.10;0.10;;;;;;;22.79;76.00;100685.72;5030070;28;20033;-69
2023/07/31 06:43:07;;;;;;;0.10;0.10;;;;;;;23.46;74.46;100676.38;5031834;28;20395;-70
2023/07/31 06:45:37;;;;;;;0.00;0.00;;;;;;;22.54;77.73;100667.09;5031112;28;20060;-72
2023/07/31 06:48:03;;;;;;;0.00;0.00;;;;;;;22.80;76.51;100656.38;5031387;28;20523;-70
2023/07/31 06:50:31;;;;;;;0.05;0.05;;;;;;;22.20;79.60;100659.34;5031329;28;20025;-70
2023/07/31 06:52:56;;;;;;;0.10;0.10;;;;;;;22.90;76.45;100667.09;5030771;28;20474;-70
2023/07/31 06:55:22;;;;;;;0.10;0.10;;;;;;;22.21;79.08;100665.63;5031438;28;20028;-69
2023/07/31 06:57:49;;;;;;;0.10;0.10;;;;;;;22.52;78.05;100647.41;5031093;28;20041;-70
2023/07/31 07:00:15;;;;;;;0.10;0.10;;;;;;;22.76;76.68;100649.91;5030770;28;20485;-70
2023/07/31 07:02:41;;;;;;;0.10;0.10;;;;;;;22.40;78.85;100644.41;5031122;28;20043;-70
2023/07/31 07:05:07;;;;;;;0.10;0.10;;;;;;;22.84;77.37;100633.50;5030950;28;20038;-70
2023/07/31 07:07:32;;;;;;;0.00;0.00;;;;;;;23.24;76.00;100628.94;5030774;28;20489;-70
2023/07/31 07:09:59;;;;;;;0.00;0.00;;;;;;;23.26;75.88;100627.50;5031103;28;20068;-71
2023/07/31 07:12:25;;;;;;;0.10;0.10;;;;;;;23.47;74.41;100636.00;5030342;28;20041;-71
2023/07/31 07:14:52;;;;;;;0.10;0.10;;;;;;;22.42;79.37;100634.78;5030452;28;20065;-71
2023/07/31 07:17:18;;;;;;;0.10;0.10;;;;;;;22.91;77.70;100631.16;5029857;28;20512;-70
2023/07/31 07:19:43;;;;;;;0.10;0.10;;;;;;;23.37;76.12;100625.34;5030755;28;20017;-71
2023/07/31 07:22:10;;;;;;;0.10;0.10;;;;;;;23.31;76.34;100634.84;5030925;28;20026;-71
2023/07/31 07:24:35;;;;;;;0.10;0.10;;;;;;;22.88;77.70;100629.03;5030128;28;20434;-71
2023/07/31 07:27:01;;;;;;;0.10;0.10;;;;;;;23.46;76.14;100637.97;5030439;28;20029;-69
2023/07/31 07:29:26;;;;;;;0.10;0.10;;;;;;;23.07;77.11;100626.09;5030072;28;20026;-71
2023/07/31 07:31:52;;;;;;;0.03;0.03;;;;;;;23.34;76.26;100631.44;5030317;28;20049;-70
2023/07/31 07:34:17;;;;;;;0.10;0.10;;;;;;;23.43;75.83;100619.38;5030358;28;20056;-69
2023/07/31 07:36:42;;;;;;;0.00;0.00;;;;;;;23.33;76.72;100625.16;5030231;28;20037;-71
2023/07/31 07:39:09;;;;;;;0.10;0.10;;;;;;;23.19;77.12;100624.38;5030166;28;20095;-70
2023/07/31 07:41:35;;;;;;;0.10;0.10;;;;;;;23.15;77.13;100622.59;5030339;28;20025;-73
2023/07/31 07:44:00;;;;;;;0.10;0.10;;;;;;;23.26;77.26;100623.94;5029653;28;20041;-71
2023/07/31 07:46:25;;;;;;;0.00;0.00;;;;;;;22.46;79.27;100624.00;5030310;28;20025;-72
2023/07/31 07:48:51;;;;;;;0.10;0.10;;;;;;;23.94;75.20;100607.00;5029988;28;20502;-71
2023/07/31 07:51:16;;;;;;;0.00;0.00;;;;;;;23.40;76.68;100600.84;5030417;28;20030;-70
2023/07/31 07:53:41;;;;;;;0.10;0.10;;;;;;;23.06;78.07;100618.97;5030102;28;20053;-71
2023/07/31 07:56:07;;;;;;;0.10;0.10;;;;;;;22.66;80.52;100601.66;5030009;28;20068;-71
2023/07/31 07:58:32;;;;;;;0.00;0.00;;;;;;;23.24;77.86;100613.31;5012446;28;20037;-71
2023/07/31 08:00:58;;;;;;;0.00;0.00;;;;;;;22.80;79.85;100602.38;5030459;28;20033;-71
2023/07/31 08:03:23;;;;;;;0.00;0.00;;;;;;;22.80;79.94;100601.59;5029792;28;20645;-71
2023/07/31 08:05:48;;;;;;;0.10;0.10;;;;;;;22.95;79.89;100612.97;5030152;28;20045;-70
2023/07/31 08:08:16;;;;;;;0.10;0.10;;;;;;;22.86;80.71;100597.59;5029383;28;20413;-70
2023/07/31 08:10:42;;;;;;;0.00;0.00;;;;;;;23.09;80.10;100599.19;5028043;28;20021;-72
2023/07/31 08:13:07;;;;;;;0.05;0.05;;;;;;;22.57;81.24;100595.28;5030078;28;20024;-71
2023/07/31 08:15:32;;;;;;;0.03;0.03;;;;;;;23.35;79.34;100594.69;5029230;28;20038;-70
2023/07/31 08:17:58;;;;;;;0.05;0.05;;;;;;;23.43;78.16;100591.13;5030274;28;20417;-71
2023/07/31 08:20:23;;;;;;;0.00;0.00;;;;;;;22.82;80.42;100596.59;5029547;28;20025;-72
2023/07/31 08:22:48;;;;;;;0.00;0.00;;;;;;;22.58;80.78;100591.44;5027248;28;20041;-72
2023/07/31 08:25:14;;;;;;;0.10;0.10;;;;;;;22.87;80.11;100586.31;5029129;28;20139;-70
2023/07/31 08:27:43;;;;;;;0.10;0.10;;;;;;;23.51;78.41;100587.63;5026088;28;20539;-70
2023/07/31 08:30:09;;;;;;;0.00;0.00;;;;;;;22.65;81.20;100587.13;5031620;28;20043;-72
2023/07/31 08:32:34;;;;;;;0.10;0.10;;;;;;;23.59;78.65;100586.84;5028825;28;20060;-70
2023/07/31 08:35:00;;;;;;;0.03;0.03;;;;;;;22.66;81.11;100588.72;5028774;28;20034;-70
2023/07/31 08:37:25;;;;;;;0.10;0.10;;;;;;;23.26;78.74;100578.16;5029379;28;20021;-69
2023/07/31 08:39:51;;;;;;;0.10;0.10;;;;;;;23.58;79.10;100582.50;5029124;28;20079;-71
2023/07/31 08:42:16;;;;;;;0.08;0.08;;;;;;;23.42;79.20;100579.38;5029349;28;20040;-72
2023/07/31 08:44:43;;;;;;;0.00;0.00;;;;;;;22.88;80.60;100582.44;5028591;28;20049;-69
2023/07/31 08:47:10;;;;;;;0.10;0.10;;;;;;;23.85;76.99;100571.28;5028976;28;20029;-71
2023/07/31 08:49:38;;;;;;;0.00;0.00;;;;;;;23.49;79.20;100567.94;5028863;28;20108;-69
2023/07/31 08:52:04;;;;;;;0.10;0.10;;;;;;;23.69;77.95;100567.34;5029722;28;20505;-70
2023/07/31 08:54:30;;;;;;;0.00;0.00;;;;;;;23.98;77.16;100575.03;5028809;28;20029;-70
2023/07/31 08:56:57;;;;;;;0.00;0.00;;;;;;;22.80;82.54;100574.19;5028179;28;20044;-71
2023/07/31 08:59:24;;;;;;;0.00;0.00;;;;;;;23.07;81.88;100577.56;5028887;28;20460;-72
2023/07/31 09:01:53;;;;;;;0.10;0.10;;;;;;;22.87;83.23;100580.84;5028336;28;20507;-69
2023/07/31 09:04:21;;;;;;;0.03;0.03;;;;;;;23.79;79.00;100567.06;5029205;28;20775;-69
2023/07/31 09:06:48;;;;;;;0.00;0.00;;;;;;;23.37;79.92;100570.50;5028931;28;20033;-72
2023/07/31 09:09:13;;;;;;;0.03;0.03;;;;;;;24.09;79.13;100579.09;5028456;28;20070;-70
2023/07/31 09:11:39;;;;;;;0.05;0.05;;;;;;;23.34;81.30;100584.81;5028875;28;20038;-70
2023/07/31 09:14:08;;;;;;;0.00;0.00;;;;;;;24.25;77.79;100574.75;5010884;28;20515;-71
2023/07/31 09:16:34;;;;;;;0.00;0.00;;;;;;;23.19;81.56;100579.72;5029017;28;20022;-71
2023/07/31 09:19:01;;;;;;;0.05;0.05;;;;;;;23.45;82.18;100570.50;5029566;28;20344;-71
2023/07/31 09:21:27;;;;;;;0.10;0.10;;;;;;;23.28;82.27;100570.41;5029090;28;20022;-70
2023/07/31 09:23:56;;;;;;;0.00;0.00;;;;;;;23.66;81.02;100562.53;5028591;28;20038;-70
2023/07/31 09:26:33;;;;;;;0.10;0.10;;;;;;;24.00;79.06;100557.09;5026002;28;20034;-71
2023/07/31 09:29:00;;;;;;;0.00;0.00;;;;;;;24.26;77.50;100566.19;5028051;28;20529;-70
2023/07/31 09:31:33;;;;;;;0.00;0.00;;;;;;;24.51;76.68;100561.03;5028926;28;20021;-71
2023/07/31 09:33:58;;;;;;;0.00;0.00;;;;;;;24.33;76.97;100561.00;5028480;28;20591;-70
2023/07/31 09:36:23;;;;;;;0.00;0.00;;;;;;;23.33;79.75;100566.75;5010018;28;20045;-73
2023/07/31 09:38:49;;;;;;;0.00;0.00;;;;;;;23.36;82.28;100549.66;5010337;28;20501;-70
2023/07/31 09:41:14;;;;;;;0.10;0.10;;;;;;;23.28;81.77;100559.44;5028384;28;20092;-72
2023/07/31 09:43:40;;;;;;;0.03;0.03;;;;;;;23.52;81.37;100557.16;5028276;28;20478;-71
2023/07/31 09:46:13;;;;;;;0.08;0.08;;;;;;;23.89;81.07;100546.75;5029026;28;20041;-70
2023/07/31 09:48:39;;;;;;;0.00;0.00;;;;;;;24.33;79.10;100539.03;5028122;28;20097;-70
2023/07/31 09:51:04;;;;;;;0.00;0.00;;;;;;;25.28;76.03;100545.16;5028550;28;20052;-72
2023/07/31 09:53:30;;;;;;;0.00;0.00;;;;;;;24.68;76.95;100539.00;5010276;28;20029;-70
2023/07/31 09:55:58;;;;;;;0.00;0.00;;;;;;;24.32;78.85;100545.69;5028229;28;20053;-71
2023/07/31 09:58:28;;;;;;;0.00;0.00;;;;;;;24.84;78.48;100543.72;5028546;28;20099;-73
2023/07/31 10:00:55;;;;;;;0.00;0.00;;;;;;;24.49;79.33;100539.34;5028430;28;20557;-72
2023/07/31 10:03:20;;;;;;;0.00;0.00;;;;;;;24.39;79.29;100539.72;5010186;28;20061;-72
2023/07/31 10:05:53;;;;;;;0.00;0.00;;;;;;;23.95;80.00;100526.25;5007714;28;20040;-72
2023/07/31 10:08:21;;;;;;;0.00;0.00;;;;;;;23.64;82.63;100540.09;5017950;28;20060;-70
2023/07/31 10:10:47;;;;;;;0.00;0.00;;;;;;;23.91;80.98;100531.56;5029087;28;20492;-70
2023/07/31 10:13:13;;;;;;;0.00;0.00;;;;;;;23.84;81.77;100539.47;5029735;28;20021;-70
2023/07/31 10:15:40;;;;;;;0.00;0.00;;;;;;;24.53;78.85;100547.78;5029144;28;20038;-72
2023/07/31 10:18:07;;;;;;;0.00;0.00;;;;;;;24.51;79.55;100541.78;5029429;28;20037;-71
2023/07/31 10:20:33;;;;;;;0.00;0.00;;;;;;;24.64;79.02;100536.13;5030824;28;20026;-71
2023/07/31 10:22:59;;;;;;;0.00;0.00;;;;;;;24.61;78.93;100538.72;5025208;28;20059;-70
2023/07/31 10:25:26;;;;;;;0.00;0.00;;;;;;;24.38;80.22;100540.81;5031378;28;20037;-74
2023/07/31 10:27:53;;;;;;;0.00;0.00;;;;;;;24.46;79.21;100536.44;5041833;28;20581;-72
2023/07/31 10:30:24;;;;;;;0.00;0.00;;;;;;;24.19;80.46;100541.16;5043882;28;20116;-71
2023/07/31 10:32:51;;;;;;;0.00;0.00;;;;;;;24.34;80.60;100531.63;5048001;28;20033;-71
2023/07/31 10:35:17;;;;;;;0.00;0.00;;;;;;;23.76;82.02;100526.56;5047739;28;20037;-70
2023/07/31 10:37:43;;;;;;;0.00;0.00;;;;;;;24.20;80.18;100520.78;5048224;28;20108;-69
2023/07/31 10:40:23;;;;;;;0.00;0.00;;;;;;;24.55;79.55;100521.56;5047017;28;20069;-68
2023/07/31 10:42:53;;;;;;;0.00;0.00;;;;;;;24.21;80.74;100530.66;5048654;28;20523;-70
2023/07/31 10:45:38;;;;;;;;;;;;;;;24.48;79.28;100534.19;5033141;28;20037;-70
2023/07/31 10:48:13;;;;;;;0.00;0.00;;;;;;;23.84;82.98;100531.22;5041344;28;19920;-75
2023/07/31 10:50:47;;;;;;;0.00;0.00;;;;;;;25.06;79.56;100526.97;5045137;28;20512;-71
2023/07/31 10:53:32;;;;;;;0.00;0.00;;;;;;;25.71;77.28;100522.97;5044345;28;20029;-70
2023/07/31 10:56:03;;;;;;;0.00;0.00;;;;;;;24.43;82.97;100522.22;5020562;28;20509;-71
2023/07/31 10:58:28;;;;;;;0.00;0.00;;;;;;;24.68;81.29;100528.84;5033940;28;20096;-70
2023/07/31 11:00:59;;;;;;;0.05;0.05;;;;;;;24.36;81.94;100532.91;5031329;28;20128;-70
2023/07/31 11:03:44;;;;;;;0.00;0.00;;;;;;;25.14;78.50;100520.63;5031452;28;20043;-70
2023/07/31 11:06:09;;;;;;;0.00;0.00;;;;;;;25.03;78.40;100537.81;5030120;28;20025;-71
2023/07/31 11:08:45;;;;;;;0.00;0.00;;;;;;;25.26;77.99;100528.19;5026895;28;20045;-73
2023/07/31 11:11:12;;;;;;;0.00;0.00;;;;;;;24.87;79.89;100523.81;5029551;28;20134;-72
2023/07/31 11:13:54;;;;;;;0.00;0.00;;;;;;;24.94;79.27;100520.56;5027602;28;20040;-73
2023/07/31 11:16:24;;;;;;;0.00;0.00;;;;;;;24.79;79.75;100524.63;5028334;28;20470;-71
2023/07/31 11:18:51;;;;;;;0.00;0.00;;;;;;;24.63;80.57;100533.69;5024226;28;20569;-73
2023/07/31 11:21:22;;;;;;;0.00;0.00;;;;;;;23.94;83.06;100524.63;5021192;28;20030;-71
2023/07/31 11:23:49;;;;;;;0.03;0.03;;;;;;;24.29;82.69;100537.28;5028336;28;20485;-73